sensor_id;sensor_type;location;lat;lon;timestamp;P1;durP1;ratioP1;P2;durP2;ratioP2
52386;SDS011;38317;53.084;6.960;2022-08-18T00:01:40;6.70;;;2.90;;
52386;SDS011;38317;53.084;6.960;2022-08-18T00:04:07;7.30;;;2.97;;
52386;SDS011;38317;53.084;6.960;2022-08-18T00:06:33;6.53;;;2.70;;
52386;SDS011;38317;53.084;6.960;2022-08-18T00:08:59;5.45;;;2.80;;
52386;SDS011;38317;53.084;6.960;2022-08-18T00:11:28;4.82;;;2.85;;
52386;SDS011;38317;53.084;6.960;2022-08-18T00:13:55;6.47;;;2.70;;
52386;SDS011;38317;53.084;6.960;2022-08-18T00:16:21;4.47;;;2.75;;
52386;SDS011;38317;53.084;6.960;2022-08-18T00:18:48;4.47;;;2.50;;
52386;SDS011;38317;53.084;6.960;2022-08-18T00:21:14;6.03;;;2.92;;
52386;SDS011;38317;53.084;6.960;2022-08-18T00:23:40;5.97;;;3.00;;
52386;SDS011;38317;53.084;6.960;2022-08-18T00:26:06;5.18;;;3.17;;
52386;SDS011;38317;53.084;6.960;2022-08-18T00:28:32;5.90;;;2.80;;
52386;SDS011;38317;53.084;6.960;2022-08-18T00:30:58;4.78;;;2.60;;
52386;SDS011;38317;53.084;6.960;2022-08-18T00:33:23;4.47;;;2.30;;
52386;SDS011;38317;53.084;6.960;2022-08-18T00:35:49;4.22;;;2.28;;
52386;SDS011;38317;53.084;6.960;2022-08-18T00:38:15;4.88;;;2.65;;
52386;SDS011;38317;53.084;6.960;2022-08-18T00:40:49;5.35;;;3.20;;
52386;SDS011;38317;53.084;6.960;2022-08-18T00:43:21;5.75;;;2.58;;
52386;SDS011;38317;53.084;6.960;2022-08-18T00:45:58;5.13;;;2.75;;
52386;SDS011;38317;53.084;6.960;2022-08-18T00:48:24;4.72;;;2.80;;
52386;SDS011;38317;53.084;6.960;2022-08-18T00:55:49;3.97;;;2.35;;
52386;SDS011;38317;53.084;6.960;2022-08-18T00:58:19;5.10;;;2.38;;
52386;SDS011;38317;53.084;6.960;2022-08-18T01:00:53;5.53;;;2.60;;
52386;SDS011;38317;53.084;6.960;2022-08-18T01:03:19;6.25;;;2.65;;
52386;SDS011;38317;53.084;6.960;2022-08-18T01:05:49;6.15;;;3.10;;
52386;SDS011;38317;53.084;6.960;2022-08-18T01:08:16;7.68;;;2.67;;
52386;SDS011;38317;53.084;6.960;2022-08-18T01:10:42;5.38;;;2.67;;
52386;SDS011;38317;53.084;6.960;2022-08-18T01:13:08;6.63;;;3.20;;
52386;SDS011;38317;53.084;6.960;2022-08-18T01:15:34;5.57;;;2.42;;
52386;SDS011;38317;53.084;6.960;2022-08-18T01:18:05;6.53;;;2.45;;
52386;SDS011;38317;53.084;6.960;2022-08-18T01:23:42;5.65;;;2.67;;
52386;SDS011;38317;53.084;6.960;2022-08-18T01:26:10;5.78;;;2.55;;
52386;SDS011;38317;53.084;6.960;2022-08-18T01:28:37;5.80;;;2.80;;
52386;SDS011;38317;53.084;6.960;2022-08-18T01:31:05;6.82;;;2.42;;
52386;SDS011;38317;53.084;6.960;2022-08-18T01:33:40;10.05;;;2.63;;
52386;SDS011;38317;53.084;6.960;2022-08-18T01:38:33;5.75;;;2.70;;
52386;SDS011;38317;53.084;6.960;2022-08-18T01:40:59;4.93;;;2.75;;
52386;SDS011;38317;53.084;6.960;2022-08-18T01:43:25;5.93;;;2.53;;
52386;SDS011;38317;53.084;6.960;2022-08-18T01:45:51;6.18;;;3.28;;
52386;SDS011;38317;53.084;6.960;2022-08-18T01:48:17;6.65;;;3.15;;
52386;SDS011;38317;53.084;6.960;2022-08-18T01:50:43;5.50;;;2.88;;
52386;SDS011;38317;53.084;6.960;2022-08-18T01:53:09;8.63;;;3.38;;
52386;SDS011;38317;53.084;6.960;2022-08-18T01:55:37;7.60;;;3.28;;
52386;SDS011;38317;53.084;6.960;2022-08-18T01:58:06;8.27;;;3.28;;
52386;SDS011;38317;53.084;6.960;2022-08-18T02:00:32;6.18;;;3.25;;
52386;SDS011;38317;53.084;6.960;2022-08-18T02:02:59;5.85;;;3.53;;
52386;SDS011;38317;53.084;6.960;2022-08-18T02:05:33;7.65;;;3.40;;
52386;SDS011;38317;53.084;6.960;2022-08-18T02:08:03;7.28;;;3.72;;
52386;SDS011;38317;53.084;6.960;2022-08-18T02:10:30;5.55;;;3.20;;
52386;SDS011;38317;53.084;6.960;2022-08-18T02:12:56;7.35;;;3.33;;
52386;SDS011;38317;53.084;6.960;2022-08-18T02:15:21;6.20;;;3.28;;
52386;SDS011;38317;53.084;6.960;2022-08-18T02:17:47;5.72;;;3.10;;
52386;SDS011;38317;53.084;6.960;2022-08-18T02:20:14;10.23;;;3.17;;
52386;SDS011;38317;53.084;6.960;2022-08-18T02:22:42;8.68;;;4.00;;
52386;SDS011;38317;53.084;6.960;2022-08-18T02:25:09;8.20;;;3.55;;
52386;SDS011;38317;53.084;6.960;2022-08-18T02:27:35;10.85;;;4.15;;
52386;SDS011;38317;53.084;6.960;2022-08-18T02:30:03;8.80;;;4.30;;
52386;SDS011;38317;53.084;6.960;2022-08-18T02:32:31;9.52;;;3.45;;
52386;SDS011;38317;53.084;6.960;2022-08-18T02:34:57;13.68;;;3.88;;
52386;SDS011;38317;53.084;6.960;2022-08-18T02:37:23;6.57;;;3.20;;
52386;SDS011;38317;53.084;6.960;2022-08-18T02:39:49;8.23;;;3.78;;
52386;SDS011;38317;53.084;6.960;2022-08-18T02:42:15;10.50;;;4.00;;
52386;SDS011;38317;53.084;6.960;2022-08-18T02:44:41;6.35;;;3.42;;
52386;SDS011;38317;53.084;6.960;2022-08-18T02:47:07;9.20;;;3.35;;
52386;SDS011;38317;53.084;6.960;2022-08-18T02:49:33;7.47;;;3.13;;
52386;SDS011;38317;53.084;6.960;2022-08-18T02:52:01;9.18;;;3.20;;
52386;SDS011;38317;53.084;6.960;2022-08-18T02:54:27;6.35;;;3.20;;
52386;SDS011;38317;53.084;6.960;2022-08-18T02:56:53;5.43;;;3.00;;
52386;SDS011;38317;53.084;6.960;2022-08-18T02:59:22;7.00;;;3.20;;
52386;SDS011;38317;53.084;6.960;2022-08-18T03:01:51;6.57;;;2.92;;
52386;SDS011;38317;53.084;6.960;2022-08-18T03:04:20;7.15;;;3.03;;
52386;SDS011;38317;53.084;6.960;2022-08-18T03:06:49;9.13;;;3.45;;
52386;SDS011;38317;53.084;6.960;2022-08-18T03:09:15;6.63;;;3.35;;
52386;SDS011;38317;53.084;6.960;2022-08-18T03:11:42;5.90;;;3.50;;
52386;SDS011;38317;53.084;6.960;2022-08-18T03:14:09;10.35;;;3.65;;
52386;SDS011;38317;53.084;6.960;2022-08-18T03:16:36;5.95;;;3.30;;
52386;SDS011;38317;53.084;6.960;2022-08-18T03:19:04;8.40;;;3.60;;
52386;SDS011;38317;53.084;6.960;2022-08-18T03:21:31;7.47;;;3.47;;
52386;SDS011;38317;53.084;6.960;2022-08-18T03:24:01;6.72;;;3.25;;
52386;SDS011;38317;53.084;6.960;2022-08-18T03:26:27;9.93;;;3.80;;
52386;SDS011;38317;53.084;6.960;2022-08-18T03:28:54;10.93;;;4.03;;
52386;SDS011;38317;53.084;6.960;2022-08-18T03:31:22;7.80;;;3.80;;
52386;SDS011;38317;53.084;6.960;2022-08-18T03:33:52;8.35;;;3.90;;
52386;SDS011;38317;53.084;6.960;2022-08-18T03:36:19;6.90;;;3.72;;
52386;SDS011;38317;53.084;6.960;2022-08-18T03:38:48;6.18;;;3.40;;
52386;SDS011;38317;53.084;6.960;2022-08-18T03:41:16;9.45;;;4.00;;
52386;SDS011;38317;53.084;6.960;2022-08-18T03:43:44;7.18;;;3.35;;
52386;SDS011;38317;53.084;6.960;2022-08-18T03:46:11;5.88;;;3.30;;
52386;SDS011;38317;53.084;6.960;2022-08-18T03:48:39;8.07;;;3.50;;
52386;SDS011;38317;53.084;6.960;2022-08-18T03:51:12;4.97;;;3.22;;
52386;SDS011;38317;53.084;6.960;2022-08-18T03:53:40;7.78;;;3.28;;
52386;SDS011;38317;53.084;6.960;2022-08-18T03:56:10;6.05;;;3.03;;
52386;SDS011;38317;53.084;6.960;2022-08-18T03:58:50;7.82;;;2.95;;
52386;SDS011;38317;53.084;6.960;2022-08-18T04:01:18;7.50;;;3.40;;
52386;SDS011;38317;53.084;6.960;2022-08-18T04:03:47;9.10;;;3.25;;
52386;SDS011;38317;53.084;6.960;2022-08-18T04:06:17;7.88;;;2.80;;
52386;SDS011;38317;53.084;6.960;2022-08-18T04:08:44;9.23;;;3.47;;
52386;SDS011;38317;53.084;6.960;2022-08-18T04:11:11;7.35;;;3.30;;
52386;SDS011;38317;53.084;6.960;2022-08-18T04:13:38;11.52;;;3.38;;
52386;SDS011;38317;53.084;6.960;2022-08-18T04:16:05;7.72;;;2.90;;
52386;SDS011;38317;53.084;6.960;2022-08-18T04:18:31;8.50;;;3.15;;
52386;SDS011;38317;53.084;6.960;2022-08-18T04:21:00;6.05;;;2.70;;
52386;SDS011;38317;53.084;6.960;2022-08-18T04:23:28;6.72;;;2.95;;
52386;SDS011;38317;53.084;6.960;2022-08-18T04:25:57;6.57;;;3.03;;
52386;SDS011;38317;53.084;6.960;2022-08-18T04:28:24;8.75;;;3.20;;
52386;SDS011;38317;53.084;6.960;2022-08-18T04:30:50;5.80;;;2.83;;
52386;SDS011;38317;53.084;6.960;2022-08-18T04:33:17;7.20;;;2.85;;
52386;SDS011;38317;53.084;6.960;2022-08-18T04:35:44;5.55;;;2.85;;
52386;SDS011;38317;53.084;6.960;2022-08-18T04:38:11;10.45;;;3.42;;
52386;SDS011;38317;53.084;6.960;2022-08-18T04:40:38;6.68;;;2.85;;
52386;SDS011;38317;53.084;6.960;2022-08-18T04:43:05;7.18;;;2.75;;
52386;SDS011;38317;53.084;6.960;2022-08-18T04:45:39;8.25;;;3.25;;
52386;SDS011;38317;53.084;6.960;2022-08-18T04:48:15;6.30;;;3.30;;
52386;SDS011;38317;53.084;6.960;2022-08-18T04:50:41;8.18;;;3.03;;
52386;SDS011;38317;53.084;6.960;2022-08-18T04:53:07;7.75;;;3.60;;
52386;SDS011;38317;53.084;6.960;2022-08-18T04:55:53;6.63;;;2.85;;
52386;SDS011;38317;53.084;6.960;2022-08-18T04:58:20;7.20;;;3.10;;
52386;SDS011;38317;53.084;6.960;2022-08-18T05:00:55;6.70;;;2.85;;
52386;SDS011;38317;53.084;6.960;2022-08-18T05:03:24;6.18;;;2.70;;
52386;SDS011;38317;53.084;6.960;2022-08-18T05:05:52;7.50;;;2.85;;
52386;SDS011;38317;53.084;6.960;2022-08-18T05:08:19;8.18;;;2.83;;
52386;SDS011;38317;53.084;6.960;2022-08-18T05:10:46;5.22;;;2.22;;
52386;SDS011;38317;53.084;6.960;2022-08-18T05:13:16;5.72;;;2.70;;
52386;SDS011;38317;53.084;6.960;2022-08-18T05:15:42;5.43;;;2.72;;
52386;SDS011;38317;53.084;6.960;2022-08-18T05:18:08;5.28;;;2.47;;
52386;SDS011;38317;53.084;6.960;2022-08-18T05:20:36;6.78;;;2.50;;
52386;SDS011;38317;53.084;6.960;2022-08-18T05:23:05;5.43;;;2.65;;
52386;SDS011;38317;53.084;6.960;2022-08-18T05:25:30;6.25;;;2.50;;
52386;SDS011;38317;53.084;6.960;2022-08-18T05:27:56;6.28;;;2.40;;
52386;SDS011;38317;53.084;6.960;2022-08-18T05:30:22;8.63;;;2.80;;
52386;SDS011;38317;53.084;6.960;2022-08-18T05:32:48;6.15;;;2.83;;
52386;SDS011;38317;53.084;6.960;2022-08-18T05:35:18;6.30;;;2.50;;
52386;SDS011;38317;53.084;6.960;2022-08-18T05:38:00;4.60;;;2.60;;
52386;SDS011;38317;53.084;6.960;2022-08-18T05:40:30;4.68;;;2.13;;
52386;SDS011;38317;53.084;6.960;2022-08-18T05:42:57;4.70;;;2.35;;
52386;SDS011;38317;53.084;6.960;2022-08-18T05:45:24;5.60;;;2.47;;
52386;SDS011;38317;53.084;6.960;2022-08-18T05:47:51;5.72;;;2.80;;
52386;SDS011;38317;53.084;6.960;2022-08-18T05:50:24;5.63;;;2.60;;
52386;SDS011;38317;53.084;6.960;2022-08-18T05:52:54;5.60;;;2.50;;
52386;SDS011;38317;53.084;6.960;2022-08-18T05:55:32;5.28;;;2.55;;
52386;SDS011;38317;53.084;6.960;2022-08-18T05:58:47;7.45;;;3.13;;
52386;SDS011;38317;53.084;6.960;2022-08-18T06:01:17;5.50;;;2.65;;
52386;SDS011;38317;53.084;6.960;2022-08-18T06:04:07;9.63;;;3.65;;
52386;SDS011;38317;53.084;6.960;2022-08-18T06:06:39;5.93;;;3.03;;
52386;SDS011;38317;53.084;6.960;2022-08-18T06:09:10;4.90;;;2.80;;
52386;SDS011;38317;53.084;6.960;2022-08-18T06:11:37;7.03;;;3.28;;
52386;SDS011;38317;53.084;6.960;2022-08-18T06:14:03;7.70;;;3.08;;
52386;SDS011;38317;53.084;6.960;2022-08-18T06:21:48;7.28;;;3.08;;
52386;SDS011;38317;53.084;6.960;2022-08-18T06:25:05;6.78;;;2.85;;
52386;SDS011;38317;53.084;6.960;2022-08-18T06:36:24;5.38;;;2.70;;
52386;SDS011;38317;53.084;6.960;2022-08-18T06:41:42;5.75;;;2.88;;
52386;SDS011;38317;53.084;6.960;2022-08-18T06:51:57;6.47;;;3.47;;
52386;SDS011;38317;53.084;6.960;2022-08-18T06:54:24;7.30;;;2.92;;
52386;SDS011;38317;53.084;6.960;2022-08-18T06:56:52;6.53;;;2.83;;
52386;SDS011;38317;53.084;6.960;2022-08-18T06:59:24;6.30;;;2.58;;
52386;SDS011;38317;53.084;6.960;2022-08-18T07:01:52;6.13;;;2.45;;
52386;SDS011;38317;53.084;6.960;2022-08-18T07:10:02;8.45;;;2.80;;
52386;SDS011;38317;53.084;6.960;2022-08-18T07:12:30;7.82;;;2.80;;
52386;SDS011;38317;53.084;6.960;2022-08-18T07:15:01;4.95;;;2.47;;
52386;SDS011;38317;53.084;6.960;2022-08-18T07:17:29;4.57;;;2.53;;
52386;SDS011;38317;53.084;6.960;2022-08-18T07:20:07;5.88;;;2.60;;
52386;SDS011;38317;53.084;6.960;2022-08-18T07:22:58;5.40;;;2.65;;
52386;SDS011;38317;53.084;6.960;2022-08-18T07:25:28;5.80;;;2.63;;
52386;SDS011;38317;53.084;6.960;2022-08-18T07:28:05;6.72;;;2.45;;
52386;SDS011;38317;53.084;6.960;2022-08-18T07:30:33;5.72;;;2.50;;
52386;SDS011;38317;53.084;6.960;2022-08-18T07:35:54;4.15;;;2.10;;
52386;SDS011;38317;53.084;6.960;2022-08-18T07:39:12;7.72;;;2.58;;
52386;SDS011;38317;53.084;6.960;2022-08-18T07:41:49;4.70;;;2.33;;
52386;SDS011;38317;53.084;6.960;2022-08-18T07:50:24;4.43;;;1.88;;
52386;SDS011;38317;53.084;6.960;2022-08-18T07:53:17;3.63;;;2.08;;
52386;SDS011;38317;53.084;6.960;2022-08-18T07:56:01;4.65;;;2.10;;
52386;SDS011;38317;53.084;6.960;2022-08-18T07:58:43;4.63;;;1.80;;
52386;SDS011;38317;53.084;6.960;2022-08-18T08:03:59;4.75;;;1.90;;
52386;SDS011;38317;53.084;6.960;2022-08-18T08:09:28;5.75;;;2.28;;
52386;SDS011;38317;53.084;6.960;2022-08-18T08:28:53;5.50;;;2.20;;
52386;SDS011;38317;53.084;6.960;2022-08-18T08:37:26;4.28;;;2.30;;
52386;SDS011;38317;53.084;6.960;2022-08-18T08:40:01;5.20;;;2.55;;
52386;SDS011;38317;53.084;6.960;2022-08-18T08:42:44;4.78;;;2.08;;
52386;SDS011;38317;53.084;6.960;2022-08-18T08:45:20;4.13;;;1.80;;
52386;SDS011;38317;53.084;6.960;2022-08-18T08:47:54;5.93;;;2.20;;
52386;SDS011;38317;53.084;6.960;2022-08-18T08:50:27;6.00;;;2.13;;
52386;SDS011;38317;53.084;6.960;2022-08-18T08:53:03;7.60;;;2.10;;
52386;SDS011;38317;53.084;6.960;2022-08-18T08:55:36;4.03;;;1.80;;
52386;SDS011;38317;53.084;6.960;2022-08-18T08:58:20;4.88;;;1.80;;
52386;SDS011;38317;53.084;6.960;2022-08-18T09:00:50;4.20;;;1.70;;
52386;SDS011;38317;53.084;6.960;2022-08-18T09:05:45;4.18;;;1.52;;
52386;SDS011;38317;53.084;6.960;2022-08-18T09:08:42;4.05;;;1.65;;
52386;SDS011;38317;53.084;6.960;2022-08-18T09:21:45;5.83;;;1.80;;
52386;SDS011;38317;53.084;6.960;2022-08-18T09:24:28;4.38;;;1.25;;
52386;SDS011;38317;53.084;6.960;2022-08-18T09:38:08;4.57;;;1.20;;
52386;SDS011;38317;53.084;6.960;2022-08-18T09:40:53;4.20;;;1.17;;
52386;SDS011;38317;53.084;6.960;2022-08-18T09:44:03;1.75;;;1.00;;
52386;SDS011;38317;53.084;6.960;2022-08-18T09:51:48;2.42;;;1.30;;
52386;SDS011;38317;53.084;6.960;2022-08-18T09:54:16;2.60;;;1.15;;
52386;SDS011;38317;53.084;6.960;2022-08-18T10:01:59;2.22;;;0.70;;
52386;SDS011;38317;53.084;6.960;2022-08-18T10:04:40;2.65;;;0.80;;
52386;SDS011;38317;53.084;6.960;2022-08-18T10:07:18;2.08;;;0.80;;
52386;SDS011;38317;53.084;6.960;2022-08-18T10:10:01;3.00;;;0.80;;
52386;SDS011;38317;53.084;6.960;2022-08-18T10:13:18;2.28;;;0.85;;
52386;SDS011;38317;53.084;6.960;2022-08-18T10:15:38;3.20;;;0.95;;
52386;SDS011;38317;53.084;6.960;2022-08-18T10:21:28;4.00;;;0.87;;
52386;SDS011;38317;53.084;6.960;2022-08-18T10:24:16;2.78;;;0.93;;
52386;SDS011;38317;53.084;6.960;2022-08-18T10:39:56;2.95;;;1.08;;
52386;SDS011;38317;53.084;6.960;2022-08-18T10:42:31;2.78;;;0.90;;
52386;SDS011;38317;53.084;6.960;2022-08-18T10:45:07;3.40;;;0.90;;
52386;SDS011;38317;53.084;6.960;2022-08-18T10:47:36;3.83;;;1.10;;
52386;SDS011;38317;53.084;6.960;2022-08-18T10:50:04;4.45;;;1.20;;
52386;SDS011;38317;53.084;6.960;2022-08-18T10:52:37;4.45;;;0.80;;
52386;SDS011;38317;53.084;6.960;2022-08-18T10:55:20;2.25;;;0.93;;
52386;SDS011;38317;53.084;6.960;2022-08-18T11:01:13;2.70;;;1.00;;
52386;SDS011;38317;53.084;6.960;2022-08-18T11:06:57;3.97;;;1.30;;
52386;SDS011;38317;53.084;6.960;2022-08-18T11:09:34;4.10;;;1.52;;
52386;SDS011;38317;53.084;6.960;2022-08-18T11:12:02;2.90;;;1.17;;
52386;SDS011;38317;53.084;6.960;2022-08-18T11:14:41;3.58;;;0.93;;
52386;SDS011;38317;53.084;6.960;2022-08-18T11:20:05;4.07;;;1.00;;
52386;SDS011;38317;53.084;6.960;2022-08-18T11:22:34;1.80;;;0.90;;
52386;SDS011;38317;53.084;6.960;2022-08-18T11:25:01;2.58;;;0.90;;
52386;SDS011;38317;53.084;6.960;2022-08-18T11:27:44;2.72;;;1.27;;
52386;SDS011;38317;53.084;6.960;2022-08-18T11:30:11;3.85;;;1.00;;
52386;SDS011;38317;53.084;6.960;2022-08-18T11:32:38;2.35;;;1.00;;
52386;SDS011;38317;53.084;6.960;2022-08-18T11:40:20;2.47;;;1.00;;
52386;SDS011;38317;53.084;6.960;2022-08-18T11:43:33;3.05;;;1.10;;
52386;SDS011;38317;53.084;6.960;2022-08-18T11:50:48;2.60;;;1.20;;
52386;SDS011;38317;53.084;6.960;2022-08-18T11:53:24;1.90;;;1.00;;
52386;SDS011;38317;53.084;6.960;2022-08-18T11:56:03;3.97;;;1.20;;
52386;SDS011;38317;53.084;6.960;2022-08-18T12:01:53;2.13;;;1.00;;
52386;SDS011;38317;53.084;6.960;2022-08-18T12:04:39;3.22;;;1.10;;
52386;SDS011;38317;53.084;6.960;2022-08-18T12:12:22;2.75;;;0.90;;
52386;SDS011;38317;53.084;6.960;2022-08-18T12:17:27;1.80;;;0.85;;
52386;SDS011;38317;53.084;6.960;2022-08-18T12:19:53;2.72;;;0.80;;
52386;SDS011;38317;53.084;6.960;2022-08-18T12:22:23;2.67;;;0.70;;
52386;SDS011;38317;53.084;6.960;2022-08-18T12:24:51;2.55;;;0.73;;
52386;SDS011;38317;53.084;6.960;2022-08-18T12:27:19;1.48;;;0.57;;
52386;SDS011;38317;53.084;6.960;2022-08-18T12:29:48;1.50;;;0.60;;
52386;SDS011;38317;53.084;6.960;2022-08-18T12:32:16;2.47;;;0.90;;
52386;SDS011;38317;53.084;6.960;2022-08-18T12:34:42;2.85;;;0.70;;
52386;SDS011;38317;53.084;6.960;2022-08-18T12:37:08;2.20;;;0.70;;
52386;SDS011;38317;53.084;6.960;2022-08-18T12:39:34;1.85;;;0.80;;
52386;SDS011;38317;53.084;6.960;2022-08-18T12:42:02;1.60;;;0.60;;
52386;SDS011;38317;53.084;6.960;2022-08-18T12:44:28;1.88;;;0.70;;
52386;SDS011;38317;53.084;6.960;2022-08-18T12:46:54;1.67;;;0.70;;
52386;SDS011;38317;53.084;6.960;2022-08-18T12:49:20;2.70;;;0.70;;
52386;SDS011;38317;53.084;6.960;2022-08-18T12:51:49;1.83;;;0.70;;
52386;SDS011;38317;53.084;6.960;2022-08-18T12:54:15;1.77;;;0.70;;
52386;SDS011;38317;53.084;6.960;2022-08-18T12:56:42;2.40;;;1.20;;
52386;SDS011;38317;53.084;6.960;2022-08-18T12:59:12;2.28;;;0.77;;
52386;SDS011;38317;53.084;6.960;2022-08-18T13:01:38;1.63;;;0.73;;
52386;SDS011;38317;53.084;6.960;2022-08-18T13:04:04;2.85;;;0.80;;
52386;SDS011;38317;53.084;6.960;2022-08-18T13:06:34;2.05;;;0.52;;
52386;SDS011;38317;53.084;6.960;2022-08-18T13:09:03;2.15;;;0.90;;
52386;SDS011;38317;53.084;6.960;2022-08-18T13:11:29;1.88;;;1.05;;
52386;SDS011;38317;53.084;6.960;2022-08-18T13:13:55;1.60;;;0.77;;
52386;SDS011;38317;53.084;6.960;2022-08-18T13:16:21;1.75;;;0.73;;
52386;SDS011;38317;53.084;6.960;2022-08-18T13:18:48;3.17;;;1.33;;
52386;SDS011;38317;53.084;6.960;2022-08-18T13:21:14;2.53;;;0.90;;
52386;SDS011;38317;53.084;6.960;2022-08-18T13:23:42;1.08;;;0.80;;
52386;SDS011;38317;53.084;6.960;2022-08-18T13:26:11;2.45;;;0.82;;
52386;SDS011;38317;53.084;6.960;2022-08-18T13:28:47;1.73;;;0.90;;
52386;SDS011;38317;53.084;6.960;2022-08-18T13:31:13;1.27;;;0.77;;
52386;SDS011;38317;53.084;6.960;2022-08-18T13:33:40;2.25;;;1.00;;
52386;SDS011;38317;53.084;6.960;2022-08-18T13:36:06;2.10;;;0.90;;
52386;SDS011;38317;53.084;6.960;2022-08-18T13:38:32;2.20;;;1.00;;
52386;SDS011;38317;53.084;6.960;2022-08-18T13:40:58;2.45;;;0.90;;
52386;SDS011;38317;53.084;6.960;2022-08-18T13:43:33;2.75;;;0.90;;
52386;SDS011;38317;53.084;6.960;2022-08-18T13:46:02;3.38;;;1.00;;
52386;SDS011;38317;53.084;6.960;2022-08-18T13:48:29;1.98;;;0.70;;
52386;SDS011;38317;53.084;6.960;2022-08-18T13:50:56;2.03;;;0.82;;
52386;SDS011;38317;53.084;6.960;2022-08-18T13:53:23;3.65;;;0.80;;
52386;SDS011;38317;53.084;6.960;2022-08-18T13:55:51;2.50;;;0.77;;
52386;SDS011;38317;53.084;6.960;2022-08-18T13:58:17;2.22;;;0.80;;
52386;SDS011;38317;53.084;6.960;2022-08-18T14:00:42;2.85;;;1.05;;
52386;SDS011;38317;53.084;6.960;2022-08-18T14:03:09;2.45;;;0.65;;
52386;SDS011;38317;53.084;6.960;2022-08-18T14:05:36;3.60;;;0.77;;
52386;SDS011;38317;53.084;6.960;2022-08-18T14:08:02;2.47;;;0.73;;
52386;SDS011;38317;53.084;6.960;2022-08-18T14:10:29;4.18;;;1.23;;
52386;SDS011;38317;53.084;6.960;2022-08-18T14:12:57;1.73;;;0.70;;
52386;SDS011;38317;53.084;6.960;2022-08-18T14:15:25;2.40;;;0.70;;
52386;SDS011;38317;53.084;6.960;2022-08-18T14:17:51;1.70;;;0.73;;
52386;SDS011;38317;53.084;6.960;2022-08-18T14:20:17;1.48;;;0.60;;
52386;SDS011;38317;53.084;6.960;2022-08-18T14:23:02;1.50;;;0.68;;
52386;SDS011;38317;53.084;6.960;2022-08-18T14:25:47;2.58;;;0.80;;
52386;SDS011;38317;53.084;6.960;2022-08-18T14:28:32;1.15;;;0.70;;
52386;SDS011;38317;53.084;6.960;2022-08-18T14:30:59;2.13;;;0.70;;
52386;SDS011;38317;53.084;6.960;2022-08-18T14:33:26;1.70;;;0.70;;
52386;SDS011;38317;53.084;6.960;2022-08-18T14:35:53;2.63;;;0.80;;
52386;SDS011;38317;53.084;6.960;2022-08-18T14:38:19;1.63;;;0.68;;
52386;SDS011;38317;53.084;6.960;2022-08-18T14:40:46;2.13;;;0.73;;
52386;SDS011;38317;53.084;6.960;2022-08-18T14:43:13;2.28;;;0.88;;
52386;SDS011;38317;53.084;6.960;2022-08-18T14:45:42;2.72;;;0.90;;
52386;SDS011;38317;53.084;6.960;2022-08-18T14:48:12;1.98;;;0.80;;
52386;SDS011;38317;53.084;6.960;2022-08-18T14:50:46;2.50;;;0.80;;
52386;SDS011;38317;53.084;6.960;2022-08-18T14:53:15;2.03;;;0.80;;
52386;SDS011;38317;53.084;6.960;2022-08-18T14:55:44;1.38;;;0.60;;
52386;SDS011;38317;53.084;6.960;2022-08-18T14:58:10;0.80;;;0.60;;
52386;SDS011;38317;53.084;6.960;2022-08-18T15:00:36;3.03;;;1.00;;
52386;SDS011;38317;53.084;6.960;2022-08-18T15:03:03;1.52;;;0.68;;
52386;SDS011;38317;53.084;6.960;2022-08-18T15:05:30;1.55;;;0.70;;
52386;SDS011;38317;53.084;6.960;2022-08-18T15:07:57;1.45;;;0.50;;
52386;SDS011;38317;53.084;6.960;2022-08-18T15:10:24;1.30;;;0.70;;
52386;SDS011;38317;53.084;6.960;2022-08-18T15:12:50;1.20;;;0.60;;
52386;SDS011;38317;53.084;6.960;2022-08-18T15:15:16;1.10;;;0.70;;
52386;SDS011;38317;53.084;6.960;2022-08-18T15:17:43;2.67;;;0.98;;
52386;SDS011;38317;53.084;6.960;2022-08-18T15:20:09;1.67;;;0.70;;
52386;SDS011;38317;53.084;6.960;2022-08-18T15:22:39;1.67;;;0.80;;
52386;SDS011;38317;53.084;6.960;2022-08-18T15:25:24;1.80;;;0.70;;
52386;SDS011;38317;53.084;6.960;2022-08-18T15:28:06;1.13;;;0.60;;
52386;SDS011;38317;53.084;6.960;2022-08-18T15:30:36;1.63;;;0.70;;
52386;SDS011;38317;53.084;6.960;2022-08-18T15:33:03;3.08;;;0.98;;
52386;SDS011;38317;53.084;6.960;2022-08-18T15:35:30;1.23;;;0.60;;
52386;SDS011;38317;53.084;6.960;2022-08-18T15:37:56;1.60;;;0.60;;
52386;SDS011;38317;53.084;6.960;2022-08-18T15:40:23;2.00;;;0.90;;
52386;SDS011;38317;53.084;6.960;2022-08-18T15:42:56;1.77;;;0.85;;
52386;SDS011;38317;53.084;6.960;2022-08-18T15:45:35;2.50;;;0.70;;
52386;SDS011;38317;53.084;6.960;2022-08-18T15:48:04;1.20;;;0.70;;
52386;SDS011;38317;53.084;6.960;2022-08-18T15:50:30;2.35;;;0.70;;
52386;SDS011;38317;53.084;6.960;2022-08-18T15:52:57;3.50;;;0.90;;
52386;SDS011;38317;53.084;6.960;2022-08-18T15:55:28;1.02;;;0.70;;
52386;SDS011;38317;53.084;6.960;2022-08-18T15:57:56;3.15;;;1.02;;
52386;SDS011;38317;53.084;6.960;2022-08-18T16:00:22;2.80;;;0.88;;
52386;SDS011;38317;53.084;6.960;2022-08-18T16:02:50;1.13;;;0.75;;
52386;SDS011;38317;53.084;6.960;2022-08-18T16:05:18;2.63;;;0.98;;
52386;SDS011;38317;53.084;6.960;2022-08-18T16:07:47;1.60;;;0.80;;
52386;SDS011;38317;53.084;6.960;2022-08-18T16:10:16;2.80;;;1.10;;
52386;SDS011;38317;53.084;6.960;2022-08-18T16:12:44;2.40;;;0.90;;
52386;SDS011;38317;53.084;6.960;2022-08-18T16:15:15;1.15;;;0.60;;
52386;SDS011;38317;53.084;6.960;2022-08-18T16:17:43;1.60;;;0.63;;
52386;SDS011;38317;53.084;6.960;2022-08-18T16:20:09;1.50;;;0.70;;
52386;SDS011;38317;53.084;6.960;2022-08-18T16:22:36;1.23;;;0.70;;
52386;SDS011;38317;53.084;6.960;2022-08-18T16:25:05;2.03;;;0.80;;
52386;SDS011;38317;53.084;6.960;2022-08-18T16:27:33;1.88;;;0.73;;
52386;SDS011;38317;53.084;6.960;2022-08-18T16:29:59;1.25;;;0.70;;
52386;SDS011;38317;53.084;6.960;2022-08-18T16:32:28;2.60;;;0.75;;
52386;SDS011;38317;53.084;6.960;2022-08-18T16:34:55;3.22;;;0.98;;
52386;SDS011;38317;53.084;6.960;2022-08-18T16:37:21;2.35;;;0.80;;
52386;SDS011;38317;53.084;6.960;2022-08-18T16:39:47;1.73;;;0.68;;
52386;SDS011;38317;53.084;6.960;2022-08-18T16:42:12;3.47;;;0.90;;
52386;SDS011;38317;53.084;6.960;2022-08-18T16:44:39;2.53;;;0.80;;
52386;SDS011;38317;53.084;6.960;2022-08-18T16:47:05;1.60;;;0.57;;
52386;SDS011;38317;53.084;6.960;2022-08-18T16:49:31;2.63;;;0.60;;
52386;SDS011;38317;53.084;6.960;2022-08-18T16:51:58;1.50;;;0.68;;
52386;SDS011;38317;53.084;6.960;2022-08-18T16:54:29;1.73;;;0.70;;
52386;SDS011;38317;53.084;6.960;2022-08-18T16:56:55;1.30;;;0.80;;
52386;SDS011;38317;53.084;6.960;2022-08-18T16:59:21;1.35;;;0.80;;
52386;SDS011;38317;53.084;6.960;2022-08-18T17:02:05;3.08;;;0.80;;
52386;SDS011;38317;53.084;6.960;2022-08-18T17:04:49;1.63;;;0.70;;
52386;SDS011;38317;53.084;6.960;2022-08-18T17:07:16;1.98;;;0.68;;
52386;SDS011;38317;53.084;6.960;2022-08-18T17:09:42;1.73;;;0.77;;
52386;SDS011;38317;53.084;6.960;2022-08-18T17:12:08;1.77;;;0.60;;
52386;SDS011;38317;53.084;6.960;2022-08-18T17:14:35;2.25;;;0.80;;
52386;SDS011;38317;53.084;6.960;2022-08-18T17:17:02;1.23;;;0.80;;
52386;SDS011;38317;53.084;6.960;2022-08-18T17:19:30;1.27;;;0.70;;
52386;SDS011;38317;53.084;6.960;2022-08-18T17:21:58;0.80;;;0.60;;
52386;SDS011;38317;53.084;6.960;2022-08-18T17:24:25;1.00;;;0.60;;
52386;SDS011;38317;53.084;6.960;2022-08-18T17:27:06;1.38;;;0.63;;
52386;SDS011;38317;53.084;6.960;2022-08-18T17:32:29;1.45;;;0.60;;
52386;SDS011;38317;53.084;6.960;2022-08-18T17:35:13;1.70;;;0.60;;
52386;SDS011;38317;53.084;6.960;2022-08-18T17:37:50;1.23;;;0.52;;
52386;SDS011;38317;53.084;6.960;2022-08-18T17:40:42;1.23;;;0.70;;
52386;SDS011;38317;53.084;6.960;2022-08-18T17:43:14;1.92;;;0.65;;
52386;SDS011;38317;53.084;6.960;2022-08-18T17:45:46;2.22;;;0.50;;
52386;SDS011;38317;53.084;6.960;2022-08-18T17:48:31;0.93;;;0.40;;
52386;SDS011;38317;53.084;6.960;2022-08-18T17:51:36;1.38;;;0.50;;